Welcome to Des Moines Iowa Weather. I am an independent private personal weather station on the Northwest Side of Des Moines, Iowa. Just East of Windsor Heights and just West of Glendale . This site is also mobile friendly.

There are no active watches, warnings or advisories


Visit our other weather sites:

Historical Data

Weather Station Setup



Weather Underground History page Text

Daily Summary for February 9, 2018 Units:  Metric    English   Both
« Previous Day
Next Day »
Daily Weekly Monthly Yearly Custom
  High: Low: Average:
Temperature: -7.4 °C -14.8 °C -10.1 °C
Dew Point: -8.9 °C -17.2 °C -13.1 °C
Humidity: 89 % 67 % 79 %
Wind Speed: 19.3 km/h 0 km/h 5.1 km/h
Wind Gust: 22.5 km/h - -
Wind:- - ENE
Pressure: 1030.7 hPa 1022.6 hPa -
Precipitation: 0 mm    
Historical Graphs
 
 
Tabular Data for February 9, 2018
Time Temperature Dew Point Pressure Wind Wind Speed Wind Gust Humidity Rainfall Rate (Hourly)
00:05 -7.4 °C -8.9 °C 1022.6 hPa East 6.4 km/h 11.3 km/h 89 % 0 mm
00:20 -7.4 °C -8.9 °C 1022.6 hPa North 6.4 km/h 14.5 km/h 89 % 0 mm
00:35 -7.4 °C -8.9 °C 1022.6 hPa ENE 6.4 km/h 12.9 km/h 89 % 0 mm
00:50 -7.6 °C -8.9 °C 1022.6 hPa NNE 6.4 km/h 19.3 km/h 89 % 0 mm
01:05 -7.5 °C -8.9 °C 1022.6 hPa NE 1.6 km/h 17.7 km/h 89 % 0 mm
01:20 -7.4 °C -8.9 °C 1022.6 hPa East 1.6 km/h 16.1 km/h 89 % 0 mm
01:35 -7.4 °C -8.9 °C 1022.6 hPa NE 3.2 km/h 14.5 km/h 88 % 0 mm
01:50 -7.4 °C -8.9 °C 1022.6 hPa NNE 3.2 km/h 14.5 km/h 88 % 0 mm
02:05 -7.5 °C -8.9 °C 1022.6 hPa NNE 4.8 km/h 12.9 km/h 88 % 0 mm
02:20 -7.5 °C -8.9 °C 1022.9 hPa Calm   14.5 km/h 88 % 0 mm
02:35 -7.5 °C -8.9 °C 1022.6 hPa Calm   17.7 km/h 88 % 0 mm
02:53 -7.6 °C -8.9 °C 1022.9 hPa ENE 8 km/h 16.1 km/h 88 % 0 mm
03:05 -7.6 °C -9.4 °C 1023.2 hPa ENE 8 km/h 14.5 km/h 87 % 0 mm
03:23 -7.6 °C -9.4 °C 1023.2 hPa NE 4.8 km/h 17.7 km/h 88 % 0 mm
03:35 -7.7 °C -9.4 °C 1023.2 hPa North 8 km/h 14.5 km/h 88 % 0 mm
03:50 -7.8 °C -9.4 °C 1023.6 hPa NNE 1.6 km/h 9.7 km/h 88 % 0 mm
04:05 -7.9 °C -9.4 °C 1023.9 hPa ENE 4.8 km/h 22.5 km/h 88 % 0 mm
04:20 -8 °C -10 °C 1023.9 hPa North 6.4 km/h 20.9 km/h 87 % 0 mm
04:36 -8.2 °C -10 °C 1024.3 hPa NE 4.8 km/h 14.5 km/h 88 % 0 mm
04:51 -8.2 °C -10 °C 1024.3 hPa NE 9.7 km/h 14.5 km/h 88 % 0 mm
05:06 -8.3 °C -10 °C 1024.6 hPa ENE 1.6 km/h 19.3 km/h 88 % 0 mm
05:21 -8.4 °C -10 °C 1024.6 hPa NNE 3.2 km/h 16.1 km/h 88 % 0 mm
05:36 -8.5 °C -10 °C 1024.9 hPa NNE 3.2 km/h 19.3 km/h 88 % 0 mm
05:51 -8.6 °C -10.6 °C 1024.9 hPa North 3.2 km/h 17.7 km/h 87 % 0 mm
06:06 -8.8 °C -10.6 °C 1024.9 hPa North 8 km/h 16.1 km/h 87 % 0 mm
06:21 -8.9 °C -10.6 °C 1024.9 hPa East 4.8 km/h 17.7 km/h 87 % 0 mm
06:36 -9 °C -10.6 °C 1024.6 hPa North 9.7 km/h 19.3 km/h 87 % 0 mm
06:51 -9.1 °C -11.1 °C 1025.6 hPa ENE 6.4 km/h 20.9 km/h 87 % 0 mm
07:06 -9.2 °C -11.1 °C 1026 hPa ENE 8 km/h 19.3 km/h 86 % 0 mm
07:21 -9.3 °C -11.1 °C 1026 hPa NNE 4.8 km/h 19.3 km/h 85 % 0 mm
07:36 -9.5 °C -11.7 °C 1026.6 hPa NE 3.2 km/h 22.5 km/h 84 % 0 mm
07:51 -9.5 °C -11.7 °C 1026.6 hPa NNE 6.4 km/h 16.1 km/h 84 % 0 mm
08:06 -9.6 °C -11.7 °C 1026.6 hPa North 9.7 km/h 16.1 km/h 83 % 0 mm
08:21 -9.6 °C -11.7 °C 1027 hPa NW 3.2 km/h 19.3 km/h 83 % 0 mm
08:36 -9.4 °C -11.7 °C 1027.3 hPa NW 3.2 km/h 17.7 km/h 83 % 0 mm
08:51 -9.3 °C -11.7 °C 1027.7 hPa North 4.8 km/h 17.7 km/h 81 % 0 mm
09:06 -9.2 °C -12.2 °C 1027.7 hPa North 1.6 km/h 17.7 km/h 80 % 0 mm
09:21 -9.4 °C -12.2 °C 1027.7 hPa North 3.2 km/h 19.3 km/h 79 % 0 mm
09:36 -9.3 °C -12.2 °C 1027.7 hPa North 4.8 km/h 19.3 km/h 79 % 0 mm
09:51 -9.2 °C -12.2 °C 1028.3 hPa North 3.2 km/h 14.5 km/h 78 % 0 mm
10:06 -9.4 °C -12.8 °C 1028 hPa North 6.4 km/h 14.5 km/h 76 % 0 mm
10:21 -9.6 °C -13.3 °C 1028 hPa ENE 3.2 km/h 22.5 km/h 75 % 0 mm
10:36 -8.8 °C -12.8 °C 1028 hPa NNE 3.2 km/h 17.7 km/h 73 % 0 mm
10:51 -9.4 °C -12.8 °C 1028.3 hPa NNE 1.6 km/h 16.1 km/h 75 % 0 mm
11:07 -9.4 °C -12.8 °C 1028.3 hPa North 9.7 km/h 14.5 km/h 75 % 0 mm
11:22 -9.7 °C -13.3 °C 1028.7 hPa North 6.4 km/h 20.9 km/h 75 % 0 mm
11:37 -9.9 °C -13.3 °C 1028.3 hPa NE 4.8 km/h 14.5 km/h 76 % 0 mm
11:52 -9.9 °C -13.3 °C 1028.3 hPa North 1.6 km/h 16.1 km/h 76 % 0 mm
12:07 -9.8 °C -13.3 °C 1028 hPa North 3.2 km/h 16.1 km/h 76 % 0 mm
12:22 -9.6 °C -12.8 °C 1027.7 hPa North 9.7 km/h 14.5 km/h 76 % 0 mm
12:37 -9.2 °C -12.8 °C 1027.7 hPa ENE 6.4 km/h 16.1 km/h 74 % 0 mm
12:52 -9.2 °C -12.8 °C 1027 hPa North 3.2 km/h 16.1 km/h 74 % 0 mm
13:07 -9.4 °C -13.3 °C 1026.6 hPa NNE 4.8 km/h 16.1 km/h 74 % 0 mm
13:22 -8.4 °C -12.8 °C 1027 hPa WNW 8 km/h 17.7 km/h 71 % 0 mm
13:37 -8.6 °C -13.3 °C 1026.6 hPa NNW 9.7 km/h 16.1 km/h 69 % 0 mm
13:52 -8.8 °C -13.3 °C 1026.6 hPa North 12.9 km/h 16.1 km/h 71 % 0 mm
14:07 -8.1 °C -13.3 °C 1026.6 hPa NNW 14.5 km/h 19.3 km/h 67 % 0 mm
14:22 -8.6 °C -13.3 °C 1026.3 hPa North 4.8 km/h 16.1 km/h 68 % 0 mm
14:40 -9.3 °C -14.4 °C 1026.3 hPa North 6.4 km/h 17.7 km/h 68 % 0 mm
14:52 -9.1 °C -13.9 °C 1026.3 hPa North 1.6 km/h 17.7 km/h 69 % 0 mm
15:07 -9.5 °C -14.4 °C 1026.3 hPa ENE 6.4 km/h 14.5 km/h 69 % 0 mm
15:24 -9.6 °C -14.4 °C 1026.6 hPa North 4.8 km/h 12.9 km/h 69 % 0 mm
15:37 -9.7 °C -14.4 °C 1027 hPa NNE 6.4 km/h 11.3 km/h 68 % 0 mm
15:52 -9.8 °C -14.4 °C 1026.6 hPa North 4.8 km/h 16.1 km/h 69 % 0 mm
16:07 -9.8 °C -15 °C 1027 hPa North 1.6 km/h 16.1 km/h 67 % 0 mm
16:22 -10.1 °C -15 °C 1027 hPa NNE 8 km/h 14.5 km/h 68 % 0 mm
16:37 -10.2 °C -15 °C 1026.6 hPa NNE 6.4 km/h 16.1 km/h 69 % 0 mm
16:52 -10.7 °C -15.6 °C 1027 hPa Calm   19.3 km/h 69 % 0 mm
17:07 -11.2 °C -15.6 °C 1027.3 hPa North 3.2 km/h 12.9 km/h 70 % 0 mm
17:22 -11.6 °C -16.1 °C 1027.3 hPa North 3.2 km/h 12.9 km/h 71 % 0 mm
17:37 -12 °C -16.1 °C 1027.3 hPa North 8 km/h 12.9 km/h 73 % 0 mm
17:52 -12.4 °C -16.1 °C 1027.7 hPa North 3.2 km/h 16.1 km/h 73 % 0 mm
18:07 -12.7 °C -16.7 °C 1027.7 hPa Calm   17.7 km/h 74 % 0 mm
18:22 -12.9 °C -16.7 °C 1028 hPa North 3.2 km/h 17.7 km/h 74 % 0 mm
18:37 -12.9 °C -16.7 °C 1028.7 hPa North 19.3 km/h 19.3 km/h 75 % 0 mm
18:52 -12.9 °C -16.7 °C 1028.3 hPa North 3.2 km/h 14.5 km/h 75 % 0 mm
19:07 -13.1 °C -16.7 °C 1028 hPa North 4.8 km/h 17.7 km/h 74 % 0 mm
19:22 -13.2 °C -16.7 °C 1028 hPa NE 3.2 km/h 16.1 km/h 74 % 0 mm
19:38 -13.2 °C -16.7 °C 1028.3 hPa NE 4.8 km/h 17.7 km/h 74 % 0 mm
19:53 -13.2 °C -16.7 °C 1028.3 hPa NNE 9.7 km/h 12.9 km/h 75 % 0 mm
20:08 -13.3 °C -17.2 °C 1028.7 hPa North 6.4 km/h 14.5 km/h 74 % 0 mm
20:23 -13.3 °C -17.2 °C 1029.7 hPa North 4.8 km/h 16.1 km/h 74 % 0 mm
20:38 -13.3 °C -17.2 °C 1029.3 hPa NNE 11.3 km/h 17.7 km/h 74 % 0 mm
20:54 -13.3 °C -17.2 °C 1029.7 hPa North 3.2 km/h 20.9 km/h 73 % 0 mm
21:08 -13.3 °C -17.2 °C 1029 hPa North 12.9 km/h 17.7 km/h 73 % 0 mm
21:23 -13.4 °C -17.2 °C 1029 hPa North 1.6 km/h 12.9 km/h 73 % 0 mm
21:38 -13.6 °C -17.2 °C 1030.4 hPa North 4.8 km/h 19.3 km/h 75 % 0 mm
21:53 -13.9 °C -16.7 °C 1030.4 hPa NNE 6.4 km/h 16.1 km/h 80 % 0 mm
22:08 -14.2 °C -16.7 °C 1030.4 hPa North 6.4 km/h 17.7 km/h 82 % 0 mm
22:23 -14.3 °C -16.7 °C 1030 hPa NNE 1.6 km/h 12.9 km/h 83 % 0 mm
22:38 -14.3 °C -16.7 °C 1030.7 hPa North 1.6 km/h 12.9 km/h 84 % 0 mm
22:53 -14.5 °C -16.7 °C 1030 hPa North 3.2 km/h 9.7 km/h 84 % 0 mm
23:08 -14.6 °C -16.7 °C 1030.4 hPa NE 3.2 km/h 12.9 km/h 85 % 0 mm
23:23 -14.7 °C -16.7 °C 1029.7 hPa NNE 1.6 km/h 14.5 km/h 85 % 0 mm
23:39 -14.7 °C -16.7 °C 1030 hPa NNE 1.6 km/h 11.3 km/h 86 % 0 mm
23:54 -14.8 °C -16.7 °C 1029 hPa NNE 3.2 km/h 14.5 km/h 86 % 0 mm
Des Moines Weather and Climate
Compliments of Weather Underground - 3 mb

Script developed by  Jim McMurry - jmcmurry@mwt.net Adapted for the template by  Wim van der Kuil - Leuven-Template.eu

You find our weather info also at:

Weather Underground

Equipment we use:

Weather-station
Davis VP2 Plus

Weather-program
Davis Weatherlink.Com

Weather-server
iMac (Retina 4K, 21.5-inch, Late 2015)

Provider
Hostmonster.com

Davis VP2 Plus

Davis Weatherlink.Com

iMac (Retina 4K, 21.5-inch, Late 2015)

Hostmonster.com